sensor_id;sensor_type;location;lat;lon;timestamp;P1;durP1;ratioP1;P2;durP2;ratioP2
69417;SDS011;56610;48.872;2.400;2022-09-09T00:05:00;5.65;;;1.75;;
69417;SDS011;56610;48.872;2.400;2022-09-09T00:10:36;4.68;;;1.58;;
69417;SDS011;56610;48.872;2.400;2022-09-09T00:18:55;7.20;;;1.67;;
69417;SDS011;56610;48.872;2.400;2022-09-09T00:21:32;5.20;;;1.65;;
69417;SDS011;56610;48.872;2.400;2022-09-09T00:26:51;5.55;;;1.40;;
69417;SDS011;56610;48.872;2.400;2022-09-09T00:29:28;6.68;;;1.73;;
69417;SDS011;56610;48.872;2.400;2022-09-09T00:32:00;8.02;;;1.73;;
69417;SDS011;56610;48.872;2.400;2022-09-09T00:34:36;7.25;;;1.92;;
69417;SDS011;56610;48.872;2.400;2022-09-09T00:37:04;5.70;;;1.40;;
69417;SDS011;56610;48.872;2.400;2022-09-09T00:39:41;6.32;;;1.50;;
69417;SDS011;56610;48.872;2.400;2022-09-09T00:47:39;8.02;;;1.88;;
69417;SDS011;56610;48.872;2.400;2022-09-09T00:58:37;7.32;;;1.90;;
69417;SDS011;56610;48.872;2.400;2022-09-09T01:01:08;6.50;;;1.55;;
69417;SDS011;56610;48.872;2.400;2022-09-09T01:11:37;4.93;;;1.55;;
69417;SDS011;56610;48.872;2.400;2022-09-09T01:14:22;9.88;;;2.03;;
69417;SDS011;56610;48.872;2.400;2022-09-09T01:17:10;6.38;;;1.83;;
69417;SDS011;56610;48.872;2.400;2022-09-09T01:22:19;8.98;;;2.13;;
69417;SDS011;56610;48.872;2.400;2022-09-09T01:30:51;7.40;;;1.65;;
69417;SDS011;56610;48.872;2.400;2022-09-09T01:33:18;6.40;;;1.60;;
69417;SDS011;56610;48.872;2.400;2022-09-09T01:36:00;6.53;;;1.67;;
69417;SDS011;56610;48.872;2.400;2022-09-09T01:38:40;5.97;;;1.80;;
69417;SDS011;56610;48.872;2.400;2022-09-09T01:41:06;6.97;;;1.92;;
69417;SDS011;56610;48.872;2.400;2022-09-09T01:43:32;7.28;;;2.10;;
69417;SDS011;56610;48.872;2.400;2022-09-09T01:45:59;6.85;;;1.60;;
69417;SDS011;56610;48.872;2.400;2022-09-09T01:48:26;8.32;;;1.90;;
69417;SDS011;56610;48.872;2.400;2022-09-09T01:50:53;6.40;;;1.60;;
69417;SDS011;56610;48.872;2.400;2022-09-09T01:53:19;6.35;;;1.83;;
69417;SDS011;56610;48.872;2.400;2022-09-09T01:55:58;6.85;;;1.67;;
69417;SDS011;56610;48.872;2.400;2022-09-09T02:02:08;7.13;;;1.50;;
69417;SDS011;56610;48.872;2.400;2022-09-09T02:04:39;8.27;;;2.10;;
69417;SDS011;56610;48.872;2.400;2022-09-09T02:07:14;5.97;;;1.80;;
69417;SDS011;56610;48.872;2.400;2022-09-09T02:09:44;6.28;;;1.60;;
69417;SDS011;56610;48.872;2.400;2022-09-09T02:12:18;6.50;;;1.77;;
69417;SDS011;56610;48.872;2.400;2022-09-09T02:14:48;8.13;;;1.55;;
69417;SDS011;56610;48.872;2.400;2022-09-09T02:17:19;9.07;;;1.80;;
69417;SDS011;56610;48.872;2.400;2022-09-09T02:20:08;6.03;;;1.90;;
69417;SDS011;56610;48.872;2.400;2022-09-09T02:22:38;6.63;;;1.80;;
69417;SDS011;56610;48.872;2.400;2022-09-09T02:25:06;6.57;;;1.85;;
69417;SDS011;56610;48.872;2.400;2022-09-09T02:27:35;6.75;;;1.90;;
69417;SDS011;56610;48.872;2.400;2022-09-09T02:30:01;6.50;;;1.63;;
69417;SDS011;56610;48.872;2.400;2022-09-09T02:32:29;5.22;;;1.55;;
69417;SDS011;56610;48.872;2.400;2022-09-09T02:35:09;6.15;;;1.95;;
69417;SDS011;56610;48.872;2.400;2022-09-09T02:37:39;9.05;;;2.05;;
69417;SDS011;56610;48.872;2.400;2022-09-09T02:40:07;10.73;;;2.03;;
69417;SDS011;56610;48.872;2.400;2022-09-09T02:42:41;8.43;;;2.17;;
69417;SDS011;56610;48.872;2.400;2022-09-09T02:45:09;6.80;;;1.88;;
69417;SDS011;56610;48.872;2.400;2022-09-09T02:50:11;6.00;;;1.80;;
69417;SDS011;56610;48.872;2.400;2022-09-09T02:52:51;7.50;;;1.60;;
69417;SDS011;56610;48.872;2.400;2022-09-09T02:55:54;6.80;;;1.70;;
69417;SDS011;56610;48.872;2.400;2022-09-09T02:58:26;6.60;;;2.35;;
69417;SDS011;56610;48.872;2.400;2022-09-09T03:00:52;6.00;;;1.80;;
69417;SDS011;56610;48.872;2.400;2022-09-09T03:03:18;5.75;;;1.77;;
69417;SDS011;56610;48.872;2.400;2022-09-09T03:05:45;8.02;;;1.88;;
69417;SDS011;56610;48.872;2.400;2022-09-09T03:08:11;6.50;;;2.20;;
69417;SDS011;56610;48.872;2.400;2022-09-09T03:10:38;6.88;;;1.77;;
69417;SDS011;56610;48.872;2.400;2022-09-09T03:13:03;7.38;;;1.83;;
69417;SDS011;56610;48.872;2.400;2022-09-09T03:15:30;7.25;;;2.03;;
69417;SDS011;56610;48.872;2.400;2022-09-09T03:17:57;9.85;;;2.05;;
69417;SDS011;56610;48.872;2.400;2022-09-09T03:20:24;7.57;;;1.92;;
69417;SDS011;56610;48.872;2.400;2022-09-09T03:22:51;7.95;;;1.98;;
69417;SDS011;56610;48.872;2.400;2022-09-09T03:25:17;7.53;;;2.00;;
69417;SDS011;56610;48.872;2.400;2022-09-09T03:27:43;8.10;;;1.85;;
69417;SDS011;56610;48.872;2.400;2022-09-09T03:30:10;7.85;;;2.13;;
69417;SDS011;56610;48.872;2.400;2022-09-09T03:32:36;9.15;;;2.45;;
69417;SDS011;56610;48.872;2.400;2022-09-09T03:35:01;6.68;;;1.90;;
69417;SDS011;56610;48.872;2.400;2022-09-09T03:37:27;8.63;;;1.85;;
69417;SDS011;56610;48.872;2.400;2022-09-09T03:39:53;9.95;;;2.03;;
69417;SDS011;56610;48.872;2.400;2022-09-09T03:42:22;7.63;;;2.00;;
69417;SDS011;56610;48.872;2.400;2022-09-09T03:44:47;10.45;;;2.60;;
69417;SDS011;56610;48.872;2.400;2022-09-09T03:47:14;6.10;;;1.90;;
69417;SDS011;56610;48.872;2.400;2022-09-09T03:49:44;7.53;;;2.05;;
69417;SDS011;56610;48.872;2.400;2022-09-09T03:52:09;8.68;;;1.92;;
69417;SDS011;56610;48.872;2.400;2022-09-09T03:54:35;8.88;;;2.03;;
69417;SDS011;56610;48.872;2.400;2022-09-09T03:57:01;5.72;;;1.67;;
69417;SDS011;56610;48.872;2.400;2022-09-09T03:59:27;6.45;;;1.75;;
69417;SDS011;56610;48.872;2.400;2022-09-09T04:01:53;6.47;;;2.00;;
69417;SDS011;56610;48.872;2.400;2022-09-09T04:04:19;4.70;;;1.42;;
69417;SDS011;56610;48.872;2.400;2022-09-09T04:06:45;6.45;;;1.75;;
69417;SDS011;56610;48.872;2.400;2022-09-09T04:09:13;7.78;;;1.75;;
69417;SDS011;56610;48.872;2.400;2022-09-09T04:11:38;9.70;;;2.20;;
69417;SDS011;56610;48.872;2.400;2022-09-09T04:14:04;6.00;;;1.83;;
69417;SDS011;56610;48.872;2.400;2022-09-09T04:16:31;7.15;;;1.80;;
69417;SDS011;56610;48.872;2.400;2022-09-09T04:19:02;6.65;;;1.90;;
69417;SDS011;56610;48.872;2.400;2022-09-09T04:21:29;7.85;;;1.77;;
69417;SDS011;56610;48.872;2.400;2022-09-09T04:23:55;6.10;;;1.95;;
69417;SDS011;56610;48.872;2.400;2022-09-09T04:26:20;6.38;;;1.65;;
69417;SDS011;56610;48.872;2.400;2022-09-09T04:28:46;9.90;;;2.63;;
69417;SDS011;56610;48.872;2.400;2022-09-09T04:31:16;9.27;;;2.17;;
69417;SDS011;56610;48.872;2.400;2022-09-09T04:33:44;6.25;;;1.88;;
69417;SDS011;56610;48.872;2.400;2022-09-09T04:36:11;9.10;;;2.25;;
69417;SDS011;56610;48.872;2.400;2022-09-09T04:38:37;7.78;;;2.05;;
69417;SDS011;56610;48.872;2.400;2022-09-09T04:41:03;6.35;;;1.85;;
69417;SDS011;56610;48.872;2.400;2022-09-09T04:43:29;6.10;;;1.80;;
69417;SDS011;56610;48.872;2.400;2022-09-09T04:45:55;8.02;;;1.90;;
69417;SDS011;56610;48.872;2.400;2022-09-09T04:48:21;7.60;;;1.65;;
69417;SDS011;56610;48.872;2.400;2022-09-09T04:51:04;8.68;;;2.00;;
69417;SDS011;56610;48.872;2.400;2022-09-09T04:53:31;8.23;;;2.15;;
69417;SDS011;56610;48.872;2.400;2022-09-09T04:58:29;9.75;;;2.17;;
69417;SDS011;56610;48.872;2.400;2022-09-09T05:00:55;8.95;;;2.10;;
69417;SDS011;56610;48.872;2.400;2022-09-09T05:03:28;7.18;;;2.03;;
69417;SDS011;56610;48.872;2.400;2022-09-09T05:05:54;6.85;;;2.15;;
69417;SDS011;56610;48.872;2.400;2022-09-09T05:08:19;10.77;;;3.03;;
69417;SDS011;56610;48.872;2.400;2022-09-09T05:10:45;7.15;;;2.30;;
69417;SDS011;56610;48.872;2.400;2022-09-09T05:13:11;8.32;;;2.00;;
69417;SDS011;56610;48.872;2.400;2022-09-09T05:15:36;6.18;;;1.80;;
69417;SDS011;56610;48.872;2.400;2022-09-09T05:18:02;9.38;;;2.30;;
69417;SDS011;56610;48.872;2.400;2022-09-09T05:20:28;11.48;;;2.28;;
69417;SDS011;56610;48.872;2.400;2022-09-09T05:22:54;6.07;;;1.70;;
69417;SDS011;56610;48.872;2.400;2022-09-09T05:25:21;4.68;;;1.65;;
69417;SDS011;56610;48.872;2.400;2022-09-09T05:27:47;6.47;;;1.63;;
69417;SDS011;56610;48.872;2.400;2022-09-09T05:30:13;6.30;;;2.10;;
69417;SDS011;56610;48.872;2.400;2022-09-09T05:32:39;8.02;;;1.92;;
69417;SDS011;56610;48.872;2.400;2022-09-09T05:35:05;7.68;;;1.92;;
69417;SDS011;56610;48.872;2.400;2022-09-09T05:37:31;9.60;;;1.83;;
69417;SDS011;56610;48.872;2.400;2022-09-09T05:39:56;8.32;;;2.30;;
69417;SDS011;56610;48.872;2.400;2022-09-09T05:42:22;9.35;;;2.25;;
69417;SDS011;56610;48.872;2.400;2022-09-09T05:44:48;7.47;;;2.45;;
69417;SDS011;56610;48.872;2.400;2022-09-09T05:47:15;5.80;;;1.83;;
69417;SDS011;56610;48.872;2.400;2022-09-09T05:49:42;8.32;;;2.28;;
69417;SDS011;56610;48.872;2.400;2022-09-09T05:52:07;7.65;;;2.13;;
69417;SDS011;56610;48.872;2.400;2022-09-09T05:54:34;10.60;;;2.17;;
69417;SDS011;56610;48.872;2.400;2022-09-09T05:57:00;9.27;;;2.28;;
69417;SDS011;56610;48.872;2.400;2022-09-09T05:59:26;6.40;;;2.15;;
69417;SDS011;56610;48.872;2.400;2022-09-09T06:01:52;7.72;;;1.85;;
69417;SDS011;56610;48.872;2.400;2022-09-09T06:04:18;6.88;;;2.00;;
69417;SDS011;56610;48.872;2.400;2022-09-09T06:06:45;8.73;;;2.13;;
69417;SDS011;56610;48.872;2.400;2022-09-09T06:09:11;6.72;;;2.03;;
69417;SDS011;56610;48.872;2.400;2022-09-09T06:11:37;8.50;;;2.15;;
69417;SDS011;56610;48.872;2.400;2022-09-09T06:14:04;6.75;;;1.67;;
69417;SDS011;56610;48.872;2.400;2022-09-09T06:16:31;8.00;;;2.00;;
69417;SDS011;56610;48.872;2.400;2022-09-09T06:19:02;7.50;;;1.92;;
69417;SDS011;56610;48.872;2.400;2022-09-09T06:21:35;7.15;;;2.08;;
69417;SDS011;56610;48.872;2.400;2022-09-09T06:24:05;10.07;;;2.38;;
69417;SDS011;56610;48.872;2.400;2022-09-09T06:26:36;6.28;;;1.85;;
69417;SDS011;56610;48.872;2.400;2022-09-09T06:29:05;9.05;;;2.10;;
69417;SDS011;56610;48.872;2.400;2022-09-09T06:31:31;9.20;;;2.20;;
69417;SDS011;56610;48.872;2.400;2022-09-09T06:36:26;7.90;;;1.95;;
69417;SDS011;56610;48.872;2.400;2022-09-09T06:38:56;5.68;;;2.10;;
69417;SDS011;56610;48.872;2.400;2022-09-09T06:41:22;8.30;;;1.83;;
69417;SDS011;56610;48.872;2.400;2022-09-09T06:43:51;6.18;;;1.88;;
69417;SDS011;56610;48.872;2.400;2022-09-09T06:46:20;6.93;;;2.10;;
69417;SDS011;56610;48.872;2.400;2022-09-09T06:48:47;8.68;;;2.05;;
69417;SDS011;56610;48.872;2.400;2022-09-09T06:51:34;6.15;;;1.88;;
69417;SDS011;56610;48.872;2.400;2022-09-09T06:58:53;7.40;;;2.15;;
69417;SDS011;56610;48.872;2.400;2022-09-09T07:01:27;6.03;;;2.22;;
69417;SDS011;56610;48.872;2.400;2022-09-09T07:03:55;5.80;;;1.75;;
69417;SDS011;56610;48.872;2.400;2022-09-09T07:06:26;7.00;;;2.17;;
69417;SDS011;56610;48.872;2.400;2022-09-09T07:08:57;8.27;;;1.85;;
69417;SDS011;56610;48.872;2.400;2022-09-09T07:11:25;5.00;;;1.83;;
69417;SDS011;56610;48.872;2.400;2022-09-09T07:13:52;7.53;;;1.80;;
69417;SDS011;56610;48.872;2.400;2022-09-09T07:16:19;10.18;;;2.22;;
69417;SDS011;56610;48.872;2.400;2022-09-09T07:18:49;7.65;;;1.80;;
69417;SDS011;56610;48.872;2.400;2022-09-09T07:21:15;4.22;;;1.67;;
69417;SDS011;56610;48.872;2.400;2022-09-09T07:23:42;6.65;;;2.00;;
69417;SDS011;56610;48.872;2.400;2022-09-09T07:26:12;8.10;;;1.70;;
69417;SDS011;56610;48.872;2.400;2022-09-09T07:28:44;6.03;;;1.92;;
69417;SDS011;56610;48.872;2.400;2022-09-09T07:31:13;6.90;;;1.85;;
69417;SDS011;56610;48.872;2.400;2022-09-09T07:33:41;5.95;;;1.80;;
69417;SDS011;56610;48.872;2.400;2022-09-09T07:38:47;9.27;;;1.90;;
69417;SDS011;56610;48.872;2.400;2022-09-09T07:41:17;5.25;;;1.70;;
69417;SDS011;56610;48.872;2.400;2022-09-09T07:43:45;5.40;;;1.40;;
69417;SDS011;56610;48.872;2.400;2022-09-09T07:46:12;7.13;;;1.80;;
69417;SDS011;56610;48.872;2.400;2022-09-09T07:49:00;6.60;;;2.00;;
69417;SDS011;56610;48.872;2.400;2022-09-09T07:51:27;5.57;;;1.65;;
69417;SDS011;56610;48.872;2.400;2022-09-09T07:53:55;8.00;;;1.80;;
69417;SDS011;56610;48.872;2.400;2022-09-09T07:56:23;5.60;;;1.63;;
69417;SDS011;56610;48.872;2.400;2022-09-09T07:58:51;6.43;;;1.77;;
69417;SDS011;56610;48.872;2.400;2022-09-09T08:01:22;5.72;;;1.60;;
69417;SDS011;56610;48.872;2.400;2022-09-09T08:03:53;4.93;;;1.48;;
69417;SDS011;56610;48.872;2.400;2022-09-09T08:06:19;5.80;;;1.90;;
69417;SDS011;56610;48.872;2.400;2022-09-09T08:08:45;6.38;;;1.55;;
69417;SDS011;56610;48.872;2.400;2022-09-09T08:11:15;6.65;;;1.60;;
69417;SDS011;56610;48.872;2.400;2022-09-09T08:14:02;3.95;;;1.55;;
69417;SDS011;56610;48.872;2.400;2022-09-09T08:16:29;5.35;;;1.70;;
69417;SDS011;56610;48.872;2.400;2022-09-09T08:18:56;4.45;;;1.50;;
69417;SDS011;56610;48.872;2.400;2022-09-09T08:21:24;6.82;;;1.83;;
69417;SDS011;56610;48.872;2.400;2022-09-09T08:23:55;5.30;;;1.60;;
69417;SDS011;56610;48.872;2.400;2022-09-09T08:26:22;8.23;;;1.67;;
69417;SDS011;56610;48.872;2.400;2022-09-09T08:28:50;8.10;;;1.98;;
69417;SDS011;56610;48.872;2.400;2022-09-09T08:31:22;5.13;;;1.75;;
69417;SDS011;56610;48.872;2.400;2022-09-09T08:33:49;3.25;;;1.40;;
69417;SDS011;56610;48.872;2.400;2022-09-09T08:36:22;6.00;;;1.50;;
69417;SDS011;56610;48.872;2.400;2022-09-09T08:38:51;5.88;;;1.65;;
69417;SDS011;56610;48.872;2.400;2022-09-09T08:41:35;5.15;;;1.60;;
69417;SDS011;56610;48.872;2.400;2022-09-09T08:47:16;4.80;;;1.50;;
69417;SDS011;56610;48.872;2.400;2022-09-09T08:50:00;6.22;;;1.60;;
69417;SDS011;56610;48.872;2.400;2022-09-09T08:52:39;6.30;;;1.73;;
69417;SDS011;56610;48.872;2.400;2022-09-09T08:55:25;6.25;;;1.45;;
69417;SDS011;56610;48.872;2.400;2022-09-09T08:57:58;5.72;;;1.65;;
69417;SDS011;56610;48.872;2.400;2022-09-09T09:00:33;5.30;;;1.58;;
69417;SDS011;56610;48.872;2.400;2022-09-09T09:05:54;6.35;;;1.50;;
69417;SDS011;56610;48.872;2.400;2022-09-09T09:08:46;4.68;;;1.45;;
69417;SDS011;56610;48.872;2.400;2022-09-09T09:11:26;6.88;;;1.60;;
69417;SDS011;56610;48.872;2.400;2022-09-09T09:13:56;3.67;;;1.42;;
69417;SDS011;56610;48.872;2.400;2022-09-09T09:19:03;5.13;;;1.55;;
69417;SDS011;56610;48.872;2.400;2022-09-09T09:21:44;5.75;;;1.67;;
69417;SDS011;56610;48.872;2.400;2022-09-09T09:24:19;5.35;;;1.40;;
69417;SDS011;56610;48.872;2.400;2022-09-09T09:26:47;4.15;;;1.40;;
69417;SDS011;56610;48.872;2.400;2022-09-09T09:29:14;6.18;;;1.30;;
69417;SDS011;56610;48.872;2.400;2022-09-09T09:31:55;4.70;;;1.33;;
69417;SDS011;56610;48.872;2.400;2022-09-09T09:34:24;4.97;;;1.23;;
69417;SDS011;56610;48.872;2.400;2022-09-09T09:36:56;5.90;;;1.40;;
69417;SDS011;56610;48.872;2.400;2022-09-09T09:39:27;5.68;;;1.50;;
69417;SDS011;56610;48.872;2.400;2022-09-09T09:42:12;6.40;;;1.80;;
69417;SDS011;56610;48.872;2.400;2022-09-09T09:44:39;6.38;;;1.70;;
69417;SDS011;56610;48.872;2.400;2022-09-09T09:47:06;3.72;;;1.23;;
69417;SDS011;56610;48.872;2.400;2022-09-09T09:49:35;6.07;;;1.42;;
69417;SDS011;56610;48.872;2.400;2022-09-09T09:52:02;5.53;;;1.30;;
69417;SDS011;56610;48.872;2.400;2022-09-09T09:57:07;6.85;;;1.60;;
69417;SDS011;56610;48.872;2.400;2022-09-09T09:59:35;7.23;;;1.70;;
69417;SDS011;56610;48.872;2.400;2022-09-09T10:05:01;6.18;;;1.45;;
69417;SDS011;56610;48.872;2.400;2022-09-09T10:07:37;5.05;;;1.40;;
69417;SDS011;56610;48.872;2.400;2022-09-09T10:10:04;5.70;;;1.40;;
69417;SDS011;56610;48.872;2.400;2022-09-09T10:17:39;4.55;;;1.65;;
69417;SDS011;56610;48.872;2.400;2022-09-09T10:20:35;7.13;;;1.85;;
69417;SDS011;56610;48.872;2.400;2022-09-09T10:29:15;4.53;;;1.20;;
69417;SDS011;56610;48.872;2.400;2022-09-09T10:31:53;5.68;;;1.27;;
69417;SDS011;56610;48.872;2.400;2022-09-09T10:40:02;5.63;;;1.90;;
69417;SDS011;56610;48.872;2.400;2022-09-09T10:42:51;3.42;;;1.65;;
69417;SDS011;56610;48.872;2.400;2022-09-09T10:45:26;5.95;;;1.60;;
69417;SDS011;56610;48.872;2.400;2022-09-09T10:53:26;3.67;;;1.10;;
69417;SDS011;56610;48.872;2.400;2022-09-09T10:56:04;6.55;;;1.50;;
69417;SDS011;56610;48.872;2.400;2022-09-09T10:58:43;3.08;;;1.38;;
69417;SDS011;56610;48.872;2.400;2022-09-09T11:01:15;5.38;;;1.63;;
69417;SDS011;56610;48.872;2.400;2022-09-09T11:03:52;3.83;;;1.38;;
69417;SDS011;56610;48.872;2.400;2022-09-09T11:06:30;3.03;;;1.20;;
69417;SDS011;56610;48.872;2.400;2022-09-09T11:09:02;4.97;;;1.50;;
69417;SDS011;56610;48.872;2.400;2022-09-09T11:11:33;4.22;;;1.52;;
69417;SDS011;56610;48.872;2.400;2022-09-09T11:16:49;3.40;;;1.52;;
69417;SDS011;56610;48.872;2.400;2022-09-09T11:19:35;2.72;;;1.55;;
69417;SDS011;56610;48.872;2.400;2022-09-09T11:22:12;5.95;;;1.67;;
69417;SDS011;56610;48.872;2.400;2022-09-09T11:27:24;4.68;;;1.42;;
69417;SDS011;56610;48.872;2.400;2022-09-09T11:32:53;3.10;;;1.23;;
69417;SDS011;56610;48.872;2.400;2022-09-09T11:38:37;5.18;;;1.33;;
69417;SDS011;56610;48.872;2.400;2022-09-09T11:41:06;5.72;;;1.85;;
69417;SDS011;56610;48.872;2.400;2022-09-09T11:43:41;5.93;;;1.50;;
69417;SDS011;56610;48.872;2.400;2022-09-09T11:46:13;6.60;;;1.52;;
69417;SDS011;56610;48.872;2.400;2022-09-09T11:48:41;5.25;;;1.58;;
69417;SDS011;56610;48.872;2.400;2022-09-09T11:51:11;4.35;;;1.50;;
69417;SDS011;56610;48.872;2.400;2022-09-09T11:53:48;5.60;;;1.60;;
69417;SDS011;56610;48.872;2.400;2022-09-09T11:56:34;4.25;;;1.30;;
69417;SDS011;56610;48.872;2.400;2022-09-09T11:59:20;4.80;;;1.80;;
69417;SDS011;56610;48.872;2.400;2022-09-09T12:01:57;3.90;;;1.63;;
69417;SDS011;56610;48.872;2.400;2022-09-09T12:07:38;4.60;;;1.40;;
69417;SDS011;56610;48.872;2.400;2022-09-09T12:12:37;4.78;;;1.60;;
69417;SDS011;56610;48.872;2.400;2022-09-09T12:15:24;3.85;;;1.40;;
69417;SDS011;56610;48.872;2.400;2022-09-09T12:17:53;2.75;;;1.10;;
69417;SDS011;56610;48.872;2.400;2022-09-09T12:28:18;3.35;;;1.45;;
69417;SDS011;56610;48.872;2.400;2022-09-09T12:33:37;4.72;;;1.65;;
69417;SDS011;56610;48.872;2.400;2022-09-09T12:36:10;6.85;;;1.40;;
69417;SDS011;56610;48.872;2.400;2022-09-09T12:38:40;4.10;;;1.40;;
69417;SDS011;56610;48.872;2.400;2022-09-09T12:41:17;4.03;;;1.33;;
69417;SDS011;56610;48.872;2.400;2022-09-09T12:43:48;5.50;;;1.80;;
69417;SDS011;56610;48.872;2.400;2022-09-09T12:46:21;4.13;;;1.50;;
69417;SDS011;56610;48.872;2.400;2022-09-09T12:48:56;4.45;;;1.77;;
69417;SDS011;56610;48.872;2.400;2022-09-09T12:53:55;5.20;;;1.42;;
69417;SDS011;56610;48.872;2.400;2022-09-09T12:56:22;4.15;;;1.80;;
69417;SDS011;56610;48.872;2.400;2022-09-09T12:58:52;4.45;;;1.40;;
69417;SDS011;56610;48.872;2.400;2022-09-09T13:01:29;4.30;;;1.50;;
69417;SDS011;56610;48.872;2.400;2022-09-09T13:03:56;6.63;;;1.50;;
69417;SDS011;56610;48.872;2.400;2022-09-09T13:06:25;3.65;;;1.48;;
69417;SDS011;56610;48.872;2.400;2022-09-09T13:08:53;6.53;;;2.15;;
69417;SDS011;56610;48.872;2.400;2022-09-09T13:11:27;4.30;;;1.20;;
69417;SDS011;56610;48.872;2.400;2022-09-09T13:14:16;5.90;;;1.73;;
69417;SDS011;56610;48.872;2.400;2022-09-09T13:16:54;5.05;;;1.70;;
69417;SDS011;56610;48.872;2.400;2022-09-09T13:19:24;4.28;;;1.63;;
69417;SDS011;56610;48.872;2.400;2022-09-09T13:21:52;4.72;;;1.58;;
69417;SDS011;56610;48.872;2.400;2022-09-09T13:24:24;4.95;;;1.60;;
69417;SDS011;56610;48.872;2.400;2022-09-09T13:26:55;6.90;;;1.75;;
69417;SDS011;56610;48.872;2.400;2022-09-09T13:29:27;4.82;;;1.70;;
69417;SDS011;56610;48.872;2.400;2022-09-09T13:31:53;5.28;;;1.85;;
69417;SDS011;56610;48.872;2.400;2022-09-09T13:34:31;6.88;;;2.08;;
69417;SDS011;56610;48.872;2.400;2022-09-09T13:37:05;7.53;;;2.05;;
69417;SDS011;56610;48.872;2.400;2022-09-09T13:39:36;3.63;;;1.50;;
69417;SDS011;56610;48.872;2.400;2022-09-09T13:42:03;3.03;;;1.48;;
69417;SDS011;56610;48.872;2.400;2022-09-09T13:44:30;2.90;;;1.02;;
69417;SDS011;56610;48.872;2.400;2022-09-09T13:49:31;2.55;;;1.10;;
69417;SDS011;56610;48.872;2.400;2022-09-09T13:52:08;2.67;;;1.10;;
69417;SDS011;56610;48.872;2.400;2022-09-09T13:57:01;3.15;;;1.40;;
69417;SDS011;56610;48.872;2.400;2022-09-09T13:59:27;3.75;;;1.30;;
69417;SDS011;56610;48.872;2.400;2022-09-09T14:01:53;3.47;;;1.35;;
69417;SDS011;56610;48.872;2.400;2022-09-09T14:04:19;4.57;;;1.38;;
69417;SDS011;56610;48.872;2.400;2022-09-09T14:06:48;5.20;;;1.50;;
69417;SDS011;56610;48.872;2.400;2022-09-09T14:09:15;2.10;;;1.10;;
69417;SDS011;56610;48.872;2.400;2022-09-09T14:11:42;2.53;;;1.25;;
69417;SDS011;56610;48.872;2.400;2022-09-09T14:14:08;3.50;;;1.50;;
69417;SDS011;56610;48.872;2.400;2022-09-09T14:16:34;4.28;;;1.42;;
69417;SDS011;56610;48.872;2.400;2022-09-09T14:19:00;4.20;;;1.45;;
69417;SDS011;56610;48.872;2.400;2022-09-09T14:21:26;7.20;;;1.65;;
69417;SDS011;56610;48.872;2.400;2022-09-09T14:23:52;3.65;;;1.50;;
69417;SDS011;56610;48.872;2.400;2022-09-09T14:26:18;4.20;;;1.20;;
69417;SDS011;56610;48.872;2.400;2022-09-09T14:28:48;3.40;;;1.48;;
69417;SDS011;56610;48.872;2.400;2022-09-09T14:31:15;3.42;;;1.13;;
69417;SDS011;56610;48.872;2.400;2022-09-09T14:33:42;4.30;;;1.50;;
69417;SDS011;56610;48.872;2.400;2022-09-09T14:36:08;4.30;;;1.27;;
69417;SDS011;56610;48.872;2.400;2022-09-09T14:38:35;4.43;;;1.50;;
69417;SDS011;56610;48.872;2.400;2022-09-09T14:41:06;2.15;;;0.98;;
69417;SDS011;56610;48.872;2.400;2022-09-09T14:43:34;3.65;;;1.50;;
69417;SDS011;56610;48.872;2.400;2022-09-09T14:46:06;2.92;;;1.42;;
69417;SDS011;56610;48.872;2.400;2022-09-09T14:48:35;8.23;;;2.45;;
69417;SDS011;56610;48.872;2.400;2022-09-09T14:51:08;6.22;;;1.88;;
69417;SDS011;56610;48.872;2.400;2022-09-09T14:53:35;3.17;;;1.40;;
69417;SDS011;56610;48.872;2.400;2022-09-09T14:56:09;4.28;;;1.50;;
69417;SDS011;56610;48.872;2.400;2022-09-09T14:58:42;3.78;;;1.42;;
69417;SDS011;56610;48.872;2.400;2022-09-09T15:01:09;3.88;;;1.23;;
69417;SDS011;56610;48.872;2.400;2022-09-09T15:03:39;4.03;;;1.30;;
69417;SDS011;56610;48.872;2.400;2022-09-09T15:06:07;4.33;;;1.13;;
69417;SDS011;56610;48.872;2.400;2022-09-09T15:08:37;4.25;;;1.20;;
69417;SDS011;56610;48.872;2.400;2022-09-09T15:11:05;3.72;;;1.20;;
69417;SDS011;56610;48.872;2.400;2022-09-09T15:13:34;2.65;;;1.20;;
69417;SDS011;56610;48.872;2.400;2022-09-09T15:16:05;3.38;;;1.05;;
69417;SDS011;56610;48.872;2.400;2022-09-09T15:18:36;3.70;;;1.40;;
69417;SDS011;56610;48.872;2.400;2022-09-09T15:21:05;3.80;;;1.25;;
69417;SDS011;56610;48.872;2.400;2022-09-09T15:23:31;3.70;;;1.23;;
69417;SDS011;56610;48.872;2.400;2022-09-09T15:25:58;4.15;;;1.13;;
69417;SDS011;56610;48.872;2.400;2022-09-09T15:28:23;2.50;;;1.08;;
69417;SDS011;56610;48.872;2.400;2022-09-09T15:30:49;3.80;;;1.30;;
69417;SDS011;56610;48.872;2.400;2022-09-09T15:33:17;2.70;;;1.13;;
69417;SDS011;56610;48.872;2.400;2022-09-09T15:35:43;2.25;;;1.10;;
69417;SDS011;56610;48.872;2.400;2022-09-09T15:38:09;3.53;;;1.38;;
69417;SDS011;56610;48.872;2.400;2022-09-09T15:40:35;3.08;;;1.25;;
69417;SDS011;56610;48.872;2.400;2022-09-09T15:43:00;2.63;;;1.13;;
69417;SDS011;56610;48.872;2.400;2022-09-09T15:45:28;2.72;;;1.33;;
69417;SDS011;56610;48.872;2.400;2022-09-09T15:50:21;2.92;;;1.27;;
69417;SDS011;56610;48.872;2.400;2022-09-09T15:52:47;3.55;;;1.38;;
69417;SDS011;56610;48.872;2.400;2022-09-09T15:55:12;3.25;;;1.38;;
69417;SDS011;56610;48.872;2.400;2022-09-09T15:57:38;3.95;;;1.30;;
69417;SDS011;56610;48.872;2.400;2022-09-09T16:00:04;3.92;;;1.25;;
69417;SDS011;56610;48.872;2.400;2022-09-09T16:02:30;4.43;;;1.50;;
69417;SDS011;56610;48.872;2.400;2022-09-09T16:04:56;1.85;;;0.98;;
69417;SDS011;56610;48.872;2.400;2022-09-09T16:07:22;3.72;;;1.60;;
69417;SDS011;56610;48.872;2.400;2022-09-09T16:09:48;2.78;;;1.17;;
69417;SDS011;56610;48.872;2.400;2022-09-09T16:12:16;2.90;;;1.15;;
69417;SDS011;56610;48.872;2.400;2022-09-09T16:14:42;3.70;;;1.40;;
69417;SDS011;56610;48.872;2.400;2022-09-09T16:17:07;4.57;;;1.63;;
69417;SDS011;56610;48.872;2.400;2022-09-09T16:19:34;3.53;;;1.30;;
69417;SDS011;56610;48.872;2.400;2022-09-09T16:22:00;3.58;;;1.15;;
69417;SDS011;56610;48.872;2.400;2022-09-09T16:24:26;4.32;;;1.25;;
69417;SDS011;56610;48.872;2.400;2022-09-09T16:26:52;3.15;;;1.40;;
69417;SDS011;56610;48.872;2.400;2022-09-09T16:29:19;4.20;;;1.48;;
69417;SDS011;56610;48.872;2.400;2022-09-09T16:31:47;6.40;;;1.65;;
69417;SDS011;56610;48.872;2.400;2022-09-09T16:34:14;3.50;;;1.58;;
69417;SDS011;56610;48.872;2.400;2022-09-09T16:36:41;2.70;;;1.17;;
69417;SDS011;56610;48.872;2.400;2022-09-09T16:39:08;4.80;;;1.52;;
69417;SDS011;56610;48.872;2.400;2022-09-09T16:41:39;3.33;;;1.30;;
69417;SDS011;56610;48.872;2.400;2022-09-09T16:44:07;4.55;;;1.45;;
69417;SDS011;56610;48.872;2.400;2022-09-09T16:46:35;4.25;;;1.45;;
69417;SDS011;56610;48.872;2.400;2022-09-09T16:49:04;2.97;;;1.55;;
69417;SDS011;56610;48.872;2.400;2022-09-09T16:51:32;3.72;;;1.52;;
69417;SDS011;56610;48.872;2.400;2022-09-09T16:54:05;3.75;;;1.30;;
69417;SDS011;56610;48.872;2.400;2022-09-09T16:56:33;2.97;;;1.30;;
69417;SDS011;56610;48.872;2.400;2022-09-09T16:59:07;2.92;;;1.15;;
69417;SDS011;56610;48.872;2.400;2022-09-09T17:01:35;3.08;;;1.13;;
69417;SDS011;56610;48.872;2.400;2022-09-09T17:04:03;3.70;;;1.30;;
69417;SDS011;56610;48.872;2.400;2022-09-09T17:06:31;3.95;;;1.30;;
69417;SDS011;56610;48.872;2.400;2022-09-09T17:09:00;3.38;;;1.17;;
69417;SDS011;56610;48.872;2.400;2022-09-09T17:11:28;3.47;;;1.63;;
69417;SDS011;56610;48.872;2.400;2022-09-09T17:13:54;3.53;;;1.30;;
69417;SDS011;56610;48.872;2.400;2022-09-09T17:16:22;3.20;;;1.27;;
69417;SDS011;56610;48.872;2.400;2022-09-09T17:18:48;3.28;;;1.20;;
69417;SDS011;56610;48.872;2.400;2022-09-09T17:21:16;4.97;;;1.42;;
69417;SDS011;56610;48.872;2.400;2022-09-09T17:23:43;4.90;;;1.67;;